createdAt,value
2024-01-27T00:00:58.946Z,8.27
2024-01-27T00:03:26.911Z,19.53
2024-01-27T00:05:55.174Z,14.10
2024-01-27T00:08:23.189Z,16.23
2024-01-27T00:10:51.097Z,16.33
2024-01-27T00:13:19.107Z,14.00
2024-01-27T00:15:47.046Z,13.80
2024-01-27T00:18:17.630Z,14.60
2024-01-27T00:20:45.662Z,14.97
2024-01-27T00:23:13.654Z,14.50
2024-01-27T00:25:41.521Z,16.17
2024-01-27T00:28:09.571Z,14.43
2024-01-27T00:30:37.434Z,14.40
2024-01-27T00:33:05.951Z,13.37
2024-01-27T00:35:35.395Z,14.47
2024-01-27T00:38:03.663Z,13.50
2024-01-27T00:40:31.688Z,13.93
2024-01-27T00:42:59.822Z,13.80
2024-01-27T00:45:28.851Z,13.90
2024-01-27T00:47:56.868Z,14.17
2024-01-27T00:50:25.467Z,13.77
2024-01-27T00:52:57.518Z,13.77
2024-01-27T00:55:27.323Z,9.70
2024-01-27T00:57:55.784Z,10.13
2024-01-27T01:00:23.994Z,10.53
2024-01-27T01:02:51.884Z,9.60
2024-01-27T01:05:19.995Z,7.70
2024-01-27T01:07:47.875Z,11.17
2024-01-27T01:10:17.111Z,8.63
2024-01-27T01:12:45.116Z,12.80
2024-01-27T01:15:14.125Z,11.33
2024-01-27T01:17:42.074Z,11.30
2024-01-27T01:20:10.857Z,11.50
2024-01-27T01:22:38.768Z,7.50
2024-01-27T01:25:07.595Z,12.03
2024-01-27T01:27:36.885Z,15.20
2024-01-27T01:30:05.156Z,8.23
2024-01-27T01:32:33.511Z,6.47
2024-01-27T01:35:01.509Z,7.97
2024-01-27T01:37:29.440Z,11.97
2024-01-27T01:39:57.510Z,10.57
2024-01-27T01:42:26.040Z,9.70
2024-01-27T01:44:55.477Z,11.47
2024-01-27T01:47:23.956Z,11.10
2024-01-27T01:49:52.562Z,11.57
2024-01-27T01:52:22.469Z,10.93
2024-01-27T01:54:51.283Z,9.63
2024-01-27T01:57:19.707Z,9.50
2024-01-27T01:59:48.674Z,7.50
2024-01-27T02:02:18.269Z,13.33
2024-01-27T02:04:47.945Z,13.33
2024-01-27T02:07:16.555Z,14.47
2024-01-27T02:09:45.167Z,14.23
2024-01-27T02:12:13.141Z,13.03
2024-01-27T02:14:41.196Z,13.07
2024-01-27T02:17:09.259Z,13.60
2024-01-27T02:19:38.645Z,14.37
2024-01-27T02:22:06.925Z,13.93
2024-01-27T02:24:36.308Z,14.70
2024-01-27T02:27:04.328Z,14.03
2024-01-27T02:29:32.190Z,17.13
2024-01-27T02:32:00.109Z,14.83
2024-01-27T02:34:27.993Z,15.10
2024-01-27T02:36:55.843Z,13.37
2024-01-27T02:39:23.860Z,12.80
2024-01-27T02:41:53.136Z,14.33
2024-01-27T02:44:20.969Z,13.67
2024-01-27T02:46:48.904Z,14.67
2024-01-27T02:49:16.855Z,13.10
2024-01-27T02:51:45.134Z,13.00
2024-01-27T02:54:13.160Z,14.63
2024-01-27T02:56:41.293Z,13.43
2024-01-27T02:59:10.466Z,12.90
2024-01-27T03:01:38.308Z,12.70
2024-01-27T03:04:06.340Z,6.87
2024-01-27T03:06:34.575Z,11.90
2024-01-27T03:09:02.563Z,6.30
2024-01-27T03:11:30.448Z,10.93
2024-01-27T03:13:58.345Z,10.03
2024-01-27T03:16:27.508Z,9.73
2024-01-27T03:18:55.851Z,13.47
2024-01-27T03:21:23.933Z,8.63
2024-01-27T03:23:51.896Z,8.23
2024-01-27T03:26:19.955Z,15.70
2024-01-27T03:28:47.933Z,8.87
2024-01-27T03:31:15.806Z,12.47
2024-01-27T03:33:45.129Z,9.97
2024-01-27T03:36:13.844Z,6.17
2024-01-27T03:38:43.202Z,7.17
2024-01-27T03:41:11.135Z,6.00
2024-01-27T03:43:38.949Z,8.37
2024-01-27T03:46:06.820Z,7.60
2024-01-27T03:48:36.234Z,15.73
2024-01-27T03:51:06.673Z,8.53
2024-01-27T03:53:34.719Z,7.57
2024-01-27T03:56:03.790Z,7.93
2024-01-27T03:58:31.817Z,7.40
2024-01-27T04:01:00.138Z,11.80
2024-01-27T04:03:28.221Z,6.43
2024-01-27T04:05:56.222Z,6.70
2024-01-27T04:08:25.560Z,11.77
2024-01-27T04:10:53.462Z,16.77
2024-01-27T04:13:21.341Z,9.53
2024-01-27T04:15:49.205Z,8.67
2024-01-27T04:18:17.188Z,11.97
2024-01-27T04:20:46.751Z,15.93
2024-01-27T04:23:14.706Z,11.20
2024-01-27T04:25:44.504Z,17.10
2024-01-27T04:28:13.833Z,13.07
2024-01-27T04:30:41.896Z,12.53
2024-01-27T04:33:09.942Z,12.03
2024-01-27T04:35:37.963Z,9.00
2024-01-27T04:38:06.237Z,6.57
2024-01-27T04:40:34.642Z,7.00
2024-01-27T04:43:04.057Z,12.23
2024-01-27T04:45:32.047Z,9.13
2024-01-27T04:48:02.157Z,10.13
2024-01-27T04:50:30.128Z,9.13
2024-01-27T04:52:58.065Z,8.73
2024-01-27T04:55:26.004Z,9.53
2024-01-27T04:57:54.376Z,10.17
2024-01-27T05:00:23.871Z,8.40
2024-01-27T05:02:51.981Z,9.77
2024-01-27T05:05:20.051Z,10.13
2024-01-27T05:07:48.969Z,11.77
2024-01-27T05:10:18.303Z,11.10
2024-01-27T05:12:46.146Z,12.73
2024-01-27T05:15:14.917Z,14.70
2024-01-27T05:17:44.152Z,6.50
2024-01-27T05:20:12.847Z,11.57
2024-01-27T05:22:40.693Z,10.47
2024-01-27T05:25:09.372Z,14.70
2024-01-27T05:27:38.684Z,10.87
2024-01-27T05:30:07.852Z,15.13
2024-01-27T05:32:35.837Z,11.20
2024-01-27T05:35:06.202Z,11.30
2024-01-27T05:37:34.212Z,16.30
2024-01-27T05:40:02.123Z,8.17
2024-01-27T05:42:30.085Z,9.90
2024-01-27T05:44:58.045Z,11.37
2024-01-27T05:47:25.867Z,14.17
2024-01-27T05:49:53.803Z,11.77
2024-01-27T05:52:25.188Z,7.43
2024-01-27T05:54:54.274Z,9.27
2024-01-27T05:57:22.652Z,9.17
2024-01-27T05:59:50.629Z,10.63
2024-01-27T06:02:19.532Z,7.80
2024-01-27T06:04:47.669Z,14.53
2024-01-27T06:07:15.810Z,12.53
2024-01-27T06:09:45.154Z,8.63
2024-01-27T06:12:13.082Z,8.60
2024-01-27T06:14:42.657Z,10.70
2024-01-27T06:17:10.514Z,9.80
2024-01-27T06:19:39.384Z,6.43
2024-01-27T06:22:07.310Z,11.30
2024-01-27T06:24:35.251Z,12.17
2024-01-27T06:27:04.827Z,7.63
2024-01-27T06:29:32.693Z,10.10
2024-01-27T06:32:00.522Z,8.10
2024-01-27T06:34:28.577Z,7.90
2024-01-27T06:36:56.564Z,7.43
2024-01-27T06:39:24.462Z,5.73
2024-01-27T06:41:52.313Z,7.53
2024-01-27T06:44:21.740Z,10.03
2024-01-27T06:46:51.191Z,9.67
2024-01-27T06:49:19.258Z,11.40
2024-01-27T06:51:47.115Z,7.47
2024-01-27T06:54:15.022Z,5.63
2024-01-27T06:56:43.055Z,6.77
2024-01-27T06:59:10.987Z,7.80
2024-01-27T07:01:41.089Z,7.53
2024-01-27T07:04:09.188Z,8.13
2024-01-27T07:06:37.336Z,8.70
2024-01-27T07:09:05.350Z,11.50
2024-01-27T07:11:33.195Z,10.33
2024-01-27T07:14:01.116Z,9.67
2024-01-27T07:16:29.009Z,10.67
2024-01-27T07:18:58.241Z,12.73
2024-01-27T07:21:27.768Z,11.27
2024-01-27T07:23:56.067Z,16.10
2024-01-27T07:26:23.960Z,6.37
2024-01-27T07:28:52.045Z,10.17
2024-01-27T07:31:19.958Z,8.93
2024-01-27T07:33:48.082Z,6.80
2024-01-27T07:36:17.326Z,7.37
2024-01-27T07:38:45.268Z,10.70
2024-01-27T07:41:13.105Z,7.33
2024-01-27T07:43:41.159Z,7.57
2024-01-27T07:46:09.028Z,15.63
2024-01-27T07:48:36.966Z,11.13
2024-01-27T07:51:05.472Z,10.97
2024-01-27T07:53:35.441Z,6.50
2024-01-27T07:56:06.186Z,7.90
2024-01-27T07:58:35.655Z,8.07
2024-01-27T08:01:03.717Z,5.73
2024-01-27T08:03:31.718Z,8.47
2024-01-27T08:06:00.213Z,11.47
2024-01-27T08:08:28.041Z,6.33
2024-01-27T08:10:57.260Z,8.93
2024-01-27T08:13:25.060Z,6.00
2024-01-27T08:15:52.973Z,9.03
2024-01-27T08:18:20.911Z,9.77
2024-01-27T08:20:48.843Z,6.30
2024-01-27T08:23:16.826Z,6.70
2024-01-27T08:25:46.611Z,5.10
2024-01-27T08:28:15.829Z,7.13
2024-01-27T08:30:43.882Z,7.67
2024-01-27T08:33:12.048Z,8.57
2024-01-27T08:35:39.917Z,4.33
2024-01-27T08:38:08.003Z,5.27
2024-01-27T08:40:36.577Z,5.63
2024-01-27T08:43:04.551Z,8.13
2024-01-27T08:45:34.108Z,5.00
2024-01-27T08:48:02.508Z,4.90
2024-01-27T08:50:30.368Z,7.00
2024-01-27T08:52:58.215Z,6.23
2024-01-27T08:55:26.392Z,7.00
2024-01-27T08:57:54.251Z,7.57
2024-01-27T09:00:22.620Z,8.30
2024-01-27T09:02:52.932Z,7.87
2024-01-27T09:05:21.051Z,6.20
2024-01-27T09:07:48.937Z,8.23
2024-01-27T09:10:17.051Z,6.47
2024-01-27T09:12:45.138Z,7.10
2024-01-27T09:15:13.187Z,5.73
2024-01-27T09:17:41.840Z,5.90
2024-01-27T09:20:12.314Z,6.60
2024-01-27T09:22:40.609Z,5.10
2024-01-27T09:25:10.094Z,6.33
2024-01-27T09:27:38.020Z,4.90
2024-01-27T09:30:07.277Z,5.33
2024-01-27T09:32:35.318Z,6.77
2024-01-27T09:35:03.453Z,8.57
2024-01-27T09:37:33.204Z,8.83
2024-01-27T09:40:01.723Z,6.13
2024-01-27T09:42:30.437Z,5.80
2024-01-27T09:45:00.415Z,6.47
2024-01-27T09:47:28.530Z,6.03
2024-01-27T09:49:56.711Z,7.83
2024-01-27T09:52:25.463Z,7.97
2024-01-27T09:54:54.709Z,8.70
2024-01-27T09:57:23.080Z,7.30
2024-01-27T09:59:51.853Z,9.13
2024-01-27T10:02:20.820Z,9.00
2024-01-27T10:04:50.798Z,7.47
2024-01-27T10:07:18.908Z,7.13
2024-01-27T10:09:50.600Z,7.80
2024-01-27T10:12:22.855Z,7.27
2024-01-27T10:14:52.014Z,7.43
2024-01-27T10:17:24.093Z,8.23
2024-01-27T10:20:02.469Z,10.90
2024-01-27T10:22:30.475Z,7.70
2024-01-27T10:24:58.312Z,10.00
2024-01-27T10:27:27.764Z,9.60
2024-01-27T10:29:56.574Z,7.40
2024-01-27T10:32:24.723Z,5.23
2024-01-27T10:35:02.977Z,6.13
2024-01-27T10:37:30.907Z,7.50
2024-01-27T10:40:04.158Z,6.53
2024-01-27T10:42:33.620Z,9.10
2024-01-27T10:45:02.083Z,6.23
2024-01-27T10:47:31.946Z,5.67
2024-01-27T10:50:01.076Z,7.63
2024-01-27T10:52:33.351Z,5.77
2024-01-27T10:55:04.070Z,8.17
2024-01-27T10:57:34.774Z,6.57
2024-01-27T11:00:05.072Z,6.73
2024-01-27T11:02:35.503Z,6.40
2024-01-27T11:05:05.892Z,8.37
2024-01-27T11:07:35.348Z,6.07
2024-01-27T11:10:03.753Z,6.30
2024-01-27T11:12:33.834Z,5.73
2024-01-27T11:15:02.022Z,6.37
2024-01-27T11:17:30.066Z,7.20
2024-01-27T11:20:00.384Z,6.00
2024-01-27T11:22:29.876Z,5.73
2024-01-27T11:25:08.887Z,6.27
2024-01-27T11:27:38.415Z,6.87
2024-01-27T11:30:07.603Z,7.23
2024-01-27T11:32:35.625Z,5.63
2024-01-27T11:35:05.969Z,5.50
2024-01-27T11:37:34.155Z,5.00
2024-01-27T11:40:07.542Z,7.23
2024-01-27T11:42:35.541Z,6.30
2024-01-27T11:45:05.457Z,5.77
2024-01-27T11:47:33.556Z,5.70
2024-01-27T11:50:01.805Z,5.83
2024-01-27T11:52:30.739Z,6.47
2024-01-27T11:54:58.855Z,6.53
2024-01-27T11:57:27.257Z,6.90
2024-01-27T11:59:56.290Z,6.93
2024-01-27T12:02:25.690Z,10.73
2024-01-27T12:04:54.297Z,10.30
2024-01-27T12:07:23.614Z,11.23
2024-01-27T12:09:52.145Z,10.40
2024-01-27T12:12:20.484Z,11.13
2024-01-27T12:14:49.824Z,10.50
2024-01-27T12:17:18.323Z,10.50
2024-01-27T12:19:50.603Z,10.83
2024-01-27T12:22:26.938Z,10.97
2024-01-27T12:24:55.502Z,11.60
2024-01-27T12:27:24.807Z,10.80
2024-01-27T12:29:53.121Z,8.00
2024-01-27T12:32:21.162Z,5.70
2024-01-27T12:34:51.798Z,6.63
2024-01-27T12:37:19.883Z,6.30
2024-01-27T12:39:47.910Z,6.43
2024-01-27T12:42:15.814Z,5.77
2024-01-27T12:44:43.769Z,6.47
2024-01-27T12:47:12.491Z,7.37
2024-01-27T12:49:40.739Z,7.73
2024-01-27T12:52:09.963Z,5.97
2024-01-27T12:54:37.933Z,6.03
2024-01-27T12:57:08.613Z,5.07
2024-01-27T12:59:36.657Z,7.73
2024-01-27T13:02:04.704Z,7.27
2024-01-27T13:04:32.642Z,8.47
2024-01-27T13:07:00.982Z,6.67
2024-01-27T13:09:30.501Z,7.77
2024-01-27T13:11:58.564Z,6.87
2024-01-27T13:14:26.552Z,8.40
2024-01-27T13:16:55.631Z,6.93
2024-01-27T13:19:23.674Z,7.67
2024-01-27T13:21:51.676Z,10.67
2024-01-27T13:24:20.024Z,5.87
2024-01-27T13:26:50.109Z,10.53
2024-01-27T13:29:18.021Z,7.57
2024-01-27T13:34:31.738Z,8.70
2024-01-27T13:37:03.977Z,6.10
2024-01-27T13:39:31.924Z,7.87
2024-01-27T13:42:01.353Z,12.97
2024-01-27T13:44:31.065Z,11.13
2024-01-27T13:47:01.782Z,8.50
2024-01-27T13:49:29.892Z,5.73
2024-01-27T13:51:57.826Z,10.17
2024-01-27T13:54:25.829Z,9.73
2024-01-27T13:56:53.860Z,7.93
2024-01-27T13:59:23.215Z,6.93
2024-01-27T14:01:51.034Z,5.10
2024-01-27T14:04:18.923Z,8.87
2024-01-27T14:06:46.995Z,7.37
2024-01-27T14:09:15.326Z,7.73
2024-01-27T14:11:43.365Z,5.60
2024-01-27T14:14:11.191Z,5.73
2024-01-27T14:16:40.620Z,6.10
2024-01-27T14:19:09.204Z,6.40
2024-01-27T14:21:37.975Z,6.20
2024-01-27T14:24:07.510Z,6.80
2024-01-27T14:26:35.800Z,5.73
2024-01-27T14:29:04.137Z,8.20
2024-01-27T14:31:32.460Z,6.50
2024-01-27T14:34:01.985Z,8.40
2024-01-27T14:36:29.951Z,5.23
2024-01-27T14:38:57.893Z,9.20
2024-01-27T14:41:25.856Z,6.57
2024-01-27T14:43:53.693Z,5.47
2024-01-27T14:46:21.658Z,9.30
2024-01-27T14:48:49.666Z,10.47
2024-01-27T14:51:18.967Z,9.13
2024-01-27T14:53:47.070Z,6.07
2024-01-27T14:56:15.860Z,9.50
2024-01-27T14:58:43.961Z,5.47
2024-01-27T15:01:12.621Z,7.67
2024-01-27T15:03:40.604Z,9.07
2024-01-27T15:06:10.074Z,7.20
2024-01-27T15:08:39.388Z,7.60
2024-01-27T15:11:07.325Z,8.10
2024-01-27T15:13:35.355Z,9.70
2024-01-27T15:16:03.217Z,6.13
2024-01-27T15:18:31.385Z,6.50
2024-01-27T15:20:59.263Z,6.83
2024-01-27T15:23:29.126Z,9.70
2024-01-27T15:25:58.661Z,7.87
2024-01-27T15:28:26.562Z,9.87
2024-01-27T15:30:54.403Z,8.50
2024-01-27T15:33:22.439Z,8.60
2024-01-27T15:35:50.432Z,7.57
2024-01-27T15:38:18.997Z,6.90
2024-01-27T15:40:46.980Z,7.43
2024-01-27T15:43:16.364Z,9.27
2024-01-27T15:45:45.205Z,10.93
2024-01-27T15:48:14.160Z,7.40
2024-01-27T15:50:42.313Z,9.43
2024-01-27T15:53:10.361Z,9.70
2024-01-27T15:55:38.499Z,7.23
2024-01-27T15:58:06.593Z,7.70
2024-01-27T16:00:35.879Z,6.63
2024-01-27T16:03:03.832Z,11.20
2024-01-27T16:05:31.779Z,7.73
2024-01-27T16:07:59.677Z,7.60
2024-01-27T16:10:27.588Z,9.43
2024-01-27T16:12:55.374Z,14.07
2024-01-27T16:15:23.240Z,11.90
2024-01-27T16:17:52.761Z,13.33
2024-01-27T16:20:20.847Z,9.30
2024-01-27T16:22:48.705Z,9.53
2024-01-27T16:25:19.353Z,6.73
2024-01-27T16:27:47.239Z,10.27
2024-01-27T16:30:17.357Z,10.43
2024-01-27T16:32:46.213Z,9.17
2024-01-27T16:35:16.227Z,7.40
2024-01-27T16:37:44.325Z,9.83
2024-01-27T16:40:12.756Z,13.00
2024-01-27T16:42:40.621Z,7.07
2024-01-27T16:45:10.777Z,10.10
2024-01-27T16:47:38.777Z,10.13
2024-01-27T16:50:07.285Z,11.63
2024-01-27T16:52:36.475Z,12.30
2024-01-27T16:55:04.432Z,33.80
2024-01-27T16:57:33.385Z,21.37
2024-01-27T17:00:01.464Z,11.33
2024-01-27T17:02:29.333Z,10.57
2024-01-27T17:05:03.714Z,9.73
2024-01-27T17:07:33.619Z,11.50
2024-01-27T17:10:05.757Z,13.47
2024-01-27T17:12:34.318Z,9.37
2024-01-27T17:15:02.306Z,10.10
2024-01-27T17:17:30.219Z,9.70
2024-01-27T17:19:58.338Z,10.30
2024-01-27T17:22:26.720Z,8.37
2024-01-27T17:24:54.635Z,9.40
2024-01-27T17:27:23.890Z,9.93
2024-01-27T17:29:51.811Z,7.17
2024-01-27T17:32:19.702Z,12.73
2024-01-27T17:34:47.718Z,13.90
2024-01-27T17:37:15.744Z,8.90
2024-01-27T17:39:43.632Z,8.70
2024-01-27T17:42:12.482Z,7.33
2024-01-27T17:44:42.281Z,14.17
2024-01-27T17:47:10.526Z,9.17
2024-01-27T17:49:38.600Z,9.33
2024-01-27T17:52:06.955Z,8.93
2024-01-27T17:54:35.577Z,7.43
2024-01-27T17:57:05.195Z,7.47
2024-01-27T17:59:33.408Z,11.30
2024-01-27T18:02:02.838Z,15.00
2024-01-27T18:04:30.821Z,19.13
2024-01-27T18:06:58.816Z,14.87
2024-01-27T18:09:26.855Z,14.73
2024-01-27T18:11:55.450Z,15.13
2024-01-27T18:14:23.454Z,14.93
2024-01-27T18:16:52.098Z,10.43
2024-01-27T18:19:22.719Z,15.00
2024-01-27T18:21:51.239Z,12.60
2024-01-27T18:24:19.575Z,9.13
2024-01-27T18:26:47.566Z,11.20
2024-01-27T18:29:15.466Z,8.60
2024-01-27T18:31:45.300Z,10.13
2024-01-27T18:34:15.250Z,11.77
2024-01-27T18:36:44.953Z,7.33
2024-01-27T18:39:16.082Z,10.30
2024-01-27T18:41:44.283Z,13.87
2024-01-27T18:44:13.969Z,9.23
2024-01-27T18:46:42.160Z,12.13
2024-01-27T18:49:10.495Z,7.87
2024-01-27T18:51:38.589Z,9.37
2024-01-27T18:54:08.020Z,10.20
2024-01-27T18:56:36.486Z,14.30
2024-01-27T18:59:04.420Z,8.70
2024-01-27T19:01:32.361Z,10.17
2024-01-27T19:04:00.406Z,12.50
2024-01-27T19:06:28.493Z,13.00
2024-01-27T19:08:56.417Z,11.20
2024-01-27T19:11:25.776Z,18.50
2024-01-27T19:13:53.563Z,16.70
2024-01-27T19:16:21.438Z,20.00
2024-01-27T19:18:49.433Z,13.63
2024-01-27T19:21:17.539Z,16.10
2024-01-27T19:23:45.464Z,16.70
2024-01-27T19:26:13.561Z,13.33
2024-01-27T19:28:42.692Z,17.57
2024-01-27T19:31:10.546Z,12.97
2024-01-27T19:33:38.706Z,11.97
2024-01-27T19:36:07.378Z,10.77
2024-01-27T19:38:35.250Z,19.83
2024-01-27T19:41:11.962Z,15.13
2024-01-27T19:43:48.848Z,10.10
2024-01-27T19:46:17.125Z,21.23
2024-01-27T19:48:45.247Z,19.73
2024-01-27T19:51:13.419Z,15.13
2024-01-27T19:53:41.466Z,18.20
2024-01-27T19:56:10.377Z,13.87
2024-01-27T19:58:38.502Z,17.07
2024-01-27T20:01:07.882Z,18.63
2024-01-27T20:03:35.824Z,18.80
2024-01-27T20:06:05.336Z,17.43
2024-01-27T20:08:33.444Z,19.80
2024-01-27T20:11:01.268Z,19.30
2024-01-27T20:13:29.260Z,22.83
2024-01-27T20:15:57.141Z,15.53
2024-01-27T20:18:26.623Z,18.97
2024-01-27T20:20:54.922Z,25.33
2024-01-27T20:23:22.785Z,18.33
2024-01-27T20:25:52.247Z,17.90
2024-01-27T20:28:22.535Z,19.50
2024-01-27T20:30:50.471Z,22.60
2024-01-27T20:33:19.867Z,23.90
2024-01-27T20:35:50.709Z,24.40
2024-01-27T20:38:18.513Z,23.97
2024-01-27T20:40:46.516Z,22.30
2024-01-27T20:43:14.412Z,19.10
2024-01-27T20:45:42.320Z,23.10
2024-01-27T20:48:14.460Z,22.50
2024-01-27T20:50:42.416Z,20.27
2024-01-27T20:53:11.636Z,19.37
2024-01-27T20:55:39.464Z,24.80
2024-01-27T20:58:08.073Z,31.40
2024-01-27T21:00:36.354Z,26.00
2024-01-27T21:03:04.433Z,25.20
2024-01-27T21:05:32.657Z,23.07
2024-01-27T21:08:00.532Z,18.40
2024-01-27T21:10:29.672Z,19.73
2024-01-27T21:12:57.576Z,18.40
2024-01-27T21:15:25.498Z,16.20
2024-01-27T21:17:54.516Z,13.77
2024-01-27T21:20:22.400Z,20.40
2024-01-27T21:22:50.541Z,13.13
2024-01-27T21:25:18.388Z,11.80
2024-01-27T21:27:47.668Z,11.80
2024-01-27T21:30:15.869Z,8.80
2024-01-27T21:32:44.523Z,10.57
2024-01-27T21:35:13.259Z,7.80
2024-01-27T21:37:42.986Z,5.87
2024-01-27T21:40:12.882Z,7.30
2024-01-27T21:42:40.859Z,7.63
2024-01-27T21:45:11.228Z,12.20
2024-01-27T21:47:39.168Z,10.37
2024-01-27T21:50:08.145Z,8.13
2024-01-27T21:52:37.974Z,10.83
2024-01-27T21:55:06.889Z,6.03
2024-01-27T21:57:34.744Z,7.60
2024-01-27T22:00:02.890Z,7.93
2024-01-27T22:02:38.169Z,7.43
2024-01-27T22:05:08.423Z,10.63
2024-01-27T22:07:36.331Z,16.87
2024-01-27T22:10:04.442Z,13.30
2024-01-27T22:12:32.268Z,24.50
2024-01-27T22:15:00.399Z,22.10
2024-01-27T22:17:28.515Z,19.40
2024-01-27T22:19:57.855Z,18.80
2024-01-27T22:22:25.957Z,19.43
2024-01-27T22:24:53.890Z,18.03
2024-01-27T22:27:21.784Z,25.03
2024-01-27T22:29:49.728Z,22.77
2024-01-27T22:32:17.546Z,18.33
2024-01-27T22:34:46.547Z,21.67
2024-01-27T22:37:15.910Z,19.47
2024-01-27T22:39:43.846Z,18.17
2024-01-27T22:42:12.283Z,19.13
2024-01-27T22:44:40.195Z,23.30
2024-01-27T22:47:08.274Z,20.87
2024-01-27T22:49:36.354Z,26.57
2024-01-27T22:52:06.840Z,22.57
2024-01-27T22:54:36.686Z,26.03
2024-01-27T22:57:04.700Z,17.60
2024-01-27T22:59:32.650Z,18.93
2024-01-27T23:02:00.799Z,18.97
2024-01-27T23:04:29.979Z,18.70
2024-01-27T23:06:58.005Z,23.07
2024-01-27T23:09:26.310Z,20.40
2024-01-27T23:11:56.859Z,25.67
2024-01-27T23:14:24.694Z,19.17
2024-01-27T23:16:52.583Z,22.30
2024-01-27T23:19:20.501Z,19.33
2024-01-27T23:21:48.424Z,18.60
2024-01-27T23:24:16.417Z,26.50
2024-01-27T23:26:44.350Z,18.57
2024-01-27T23:29:13.670Z,15.77
2024-01-27T23:31:41.535Z,16.30
2024-01-27T23:34:11.668Z,15.00
2024-01-27T23:36:39.741Z,16.20
2024-01-27T23:39:07.906Z,15.57
2024-01-27T23:41:35.855Z,17.27
2024-01-27T23:44:03.739Z,21.73
2024-01-27T23:46:32.899Z,14.20
2024-01-27T23:49:00.847Z,10.67
2024-01-27T23:51:28.804Z,10.17
2024-01-27T23:53:58.619Z,13.67
2024-01-27T23:56:26.758Z,24.40
2024-01-27T23:58:55.107Z,24.47
